Time;durP1;ratioP1;P1;durP2;ratioP2;P2;SDS_P1;SDS_P2;PMS_P1;PMS_P2;Temp;Humidity;BMP_temperature;BMP_pressure;BME280_temperature;BME280_humidity;BME280_pressure;Samples;Min_cycle;Max_cycle;Signal;HPM_P1;HPM_P2
2023/06/14 00:09:12;;;;;;;4.75;4.30;;;;;;;27.74;39.51;100451.69;20993094;28;20040;-59
2023/06/14 00:19:14;;;;;;;4.50;4.10;;;;;;;27.74;39.43;100455.31;20992688;28;20040;-58
2023/06/14 00:29:15;;;;;;;4.32;3.92;;;;;;;27.75;39.50;100444.88;21008279;28;20332;-58
2023/06/14 00:39:16;;;;;;;5.45;4.22;;;;;;;27.74;39.71;100449.69;21019591;28;20158;-58
2023/06/14 00:49:19;;;;;;;4.72;4.22;;;;;;;27.74;39.44;100449.69;21018695;28;20442;-58
2023/06/14 00:59:23;;;;;;;4.57;4.18;;;;;;;27.75;39.73;100459.75;21018857;28;20036;-63
2023/06/14 01:09:41;;;;;;;4.47;4.07;;;;;;;27.71;39.74;100446.69;21018437;28;20483;-58
2023/06/14 01:19:44;;;;;;;3.85;3.53;;;;;;;27.62;39.45;100441.13;21018384;28;20028;-60
2023/06/14 01:29:45;;;;;;;4.03;3.63;;;;;;;27.74;39.51;100458.13;21018139;28;20048;-58
2023/06/14 01:39:49;;;;;;;4.38;3.97;;;;;;;27.75;39.73;100461.75;21010196;28;20025;-57
2023/06/14 01:49:51;;;;;;;4.72;4.22;;;;;;;27.67;39.69;100446.53;21003494;28;20193;-59
2023/06/14 01:59:52;;;;;;;4.38;3.97;;;;;;;27.75;39.66;100475.81;21002349;28;20044;-59
2023/06/14 02:09:53;;;;;;;4.28;3.88;;;;;;;27.73;39.60;100473.34;21001761;28;20032;-59
2023/06/14 02:19:57;;;;;;;4.10;3.70;;;;;;;27.75;39.71;100487.88;21000936;28;20054;-59
2023/06/14 02:29:58;;;;;;;4.20;3.80;;;;;;;27.76;39.49;100480.25;20999773;28;20045;-57
2023/06/14 02:40:02;;;;;;;4.25;3.85;;;;;;;27.73;39.49;100483.78;20999457;28;20037;-57
2023/06/14 02:50:07;;;;;;;4.20;3.80;;;;;;;27.75;39.62;100482.25;20996671;28;20044;-57
2023/06/14 03:00:10;;;;;;;4.40;4.00;;;;;;;27.74;39.69;100463.75;20997167;28;20041;-57
2023/06/14 03:10:12;;;;;;;4.82;4.43;;;;;;;27.75;39.64;100436.44;20996157;28;20090;-57
2023/06/14 03:20:14;;;;;;;4.40;4.00;;;;;;;27.75;39.50;100419.59;20995936;28;20078;-56
2023/06/14 03:30:15;;;;;;;4.75;4.10;;;;;;;27.75;39.56;100413.97;20994738;28;20053;-58
2023/06/14 03:40:19;;;;;;;4.82;4.35;;;;;;;27.73;39.45;100421.94;20995011;28;20063;-58
2023/06/14 03:50:21;;;;;;;4.57;4.18;;;;;;;27.74;39.65;100417.94;20993940;28;20048;-58
2023/06/14 04:00:23;;;;;;;4.43;4.00;;;;;;;27.74;39.59;100423.56;20993587;28;20075;-58
2023/06/14 04:10:24;;;;;;;5.03;4.53;;;;;;;27.73;39.59;100405.88;20992913;28;20105;-58
2023/06/14 04:20:26;;;;;;;4.85;4.45;;;;;;;27.72;39.59;100394.97;20992527;28;20040;-58
2023/06/14 04:30:31;;;;;;;4.47;4.07;;;;;;;27.72;39.60;100384.56;20991966;28;20045;-58
2023/06/14 04:40:45;;;;;;;5.10;4.60;;;;;;;27.73;39.70;100383.41;20991703;28;20041;-58
2023/06/14 04:50:52;;;;;;;4.63;4.22;;;;;;;27.71;39.75;100353.94;20991545;28;20052;-59
2023/06/14 05:00:55;;;;;;;5.22;4.72;;;;;;;27.73;39.83;100348.84;20991597;28;20044;-58
2023/06/14 05:10:57;;;;;;;4.45;4.05;;;;;;;27.72;39.71;100342.41;20991022;28;20036;-58
2023/06/14 05:20:58;;;;;;;4.38;3.97;;;;;;;27.71;39.65;100346.31;21005968;28;20025;-58
2023/06/14 05:30:59;;;;;;;4.90;4.40;;;;;;;27.67;39.68;100322.88;21003924;28;20045;-58
2023/06/14 05:41:04;;;;;;;5.15;4.65;;;;;;;27.71;39.95;100346.31;21003205;28;20043;-58
2023/06/14 05:51:08;;;;;;;4.40;4.00;;;;;;;27.65;39.77;100322.41;21003861;28;20048;-59
2023/06/14 06:01:10;;;;;;;4.68;4.22;;;;;;;27.72;39.79;100335.94;21003481;28;20326;-60
2023/06/14 06:11:14;;;;;;;4.60;4.20;;;;;;;27.71;39.86;100329.44;21001941;28;20051;-58
2023/06/14 06:21:16;;;;;;;4.53;4.13;;;;;;;27.66;39.77;100303.53;21001667;28;20078;-57
2023/06/14 06:31:18;;;;;;;5.10;4.60;;;;;;;27.71;39.86;100300.53;20999511;28;20110;-58
2023/06/14 06:41:20;;;;;;;4.78;4.38;;;;;;;27.70;39.83;100296.06;20999434;28;20169;-57
2023/06/14 06:51:21;;;;;;;4.90;3.92;;;;;;;27.69;39.84;100286.00;20998600;28;20114;-58
2023/06/14 07:01:24;;;;;;;4.88;4.38;;;;;;;27.69;40.08;100274.75;20998186;28;20044;-58
2023/06/14 07:11:28;;;;;;;4.05;3.75;;;;;;;27.68;39.94;100254.25;20996563;28;20040;-57
2023/06/14 07:21:30;;;;;;;4.57;4.18;;;;;;;27.68;39.86;100237.41;20995780;28;20052;-56
2023/06/14 07:31:31;;;;;;;4.55;4.15;;;;;;;27.68;40.08;100234.59;20995455;28;20365;-57
2023/06/14 07:41:33;;;;;;;4.95;4.53;;;;;;;27.66;40.10;100219.22;20994289;28;20365;-58
2023/06/14 07:51:34;;;;;;;4.10;3.70;;;;;;;27.66;40.22;100197.56;20993940;28;20545;-57
2023/06/14 08:01:36;;;;;;;4.43;3.92;;;;;;;27.66;39.95;100191.94;20993586;28;20048;-59
2023/06/14 08:11:37;;;;;;;4.32;3.92;;;;;;;27.65;39.92;100184.66;20993669;28;20098;-58
2023/06/14 08:21:39;;;;;;;4.50;4.10;;;;;;;27.63;40.27;100164.53;20992513;28;20368;-57
2023/06/14 08:31:44;;;;;;;4.55;3.70;;;;;;;27.63;40.32;100156.09;20992405;28;20055;-58
2023/06/14 08:41:48;;;;;;;4.30;3.90;;;;;;;27.61;40.26;100133.13;20992195;28;20033;-59
2023/06/14 08:51:57;;;;;;;4.20;3.80;;;;;;;27.63;40.33;100142.06;21003222;28;20149;-58
2023/06/14 09:02:00;;;;;;;4.25;3.85;;;;;;;27.62;40.28;100141.19;21007387;28;20484;-57
2023/06/14 09:12:01;;;;;;;4.20;3.80;;;;;;;27.58;40.33;100125.38;21006818;28;20392;-55
2023/06/14 09:22:04;;;;;;;5.25;4.22;;;;;;;27.61;40.22;100119.06;21005548;28;20400;-58
2023/06/14 09:32:06;;;;;;;4.00;3.70;;;;;;;27.60;40.35;100109.81;21004719;28;20044;-58
2023/06/14 09:42:20;;;;;;;5.70;4.10;;;;;;;27.53;40.22;100103.13;21004240;28;20036;-58
2023/06/14 09:52:23;;;;;;;4.20;3.80;;;;;;;27.60;40.35;100114.63;21003355;28;20056;-57
2023/06/14 10:02:37;;;;;;;4.07;3.67;;;;;;;27.59;40.44;100124.22;21002257;28;20088;-58
2023/06/14 10:12:38;;;;;;;4.30;3.90;;;;;;;27.59;40.47;100118.63;21001793;28;20040;-57
2023/06/14 10:22:49;;;;;;;3.58;3.28;;;;;;;27.50;40.52;100087.78;21001367;28;21321;-58
2023/06/14 10:33:07;;;;;;;4.10;3.63;;;;;;;27.52;40.44;100095.84;21000892;28;20513;-56
2023/06/14 10:43:24;;;;;;;4.15;3.80;;;;;;;27.54;40.45;100094.34;20999662;28;20043;-57
2023/06/14 10:53:26;;;;;;;5.10;4.40;;;;;;;27.51;40.45;100068.94;20998419;28;20045;-57
2023/06/14 11:03:53;;;;;;;4.32;3.67;;;;;;;27.52;40.68;100079.00;20996476;28;20052;-58
2023/06/14 11:14:04;;;;;;;4.57;3.95;;;;;;;27.53;40.46;100083.44;20996745;28;20040;-57
2023/06/14 11:24:15;;;;;;;4.03;3.60;;;;;;;27.53;40.44;100097.50;20997453;28;20036;-57
2023/06/14 11:34:17;;;;;;;4.40;4.00;;;;;;;27.41;40.61;100055.31;20995206;28;20040;-57
2023/06/14 11:44:19;;;;;;;4.95;4.22;;;;;;;27.56;40.58;100074.31;20994176;28;20059;-58
2023/06/14 11:54:20;;;;;;;4.25;3.60;;;;;;;27.57;40.50;100078.78;20992823;28;21177;-57
2023/06/14 12:04:27;;;;;;;4.60;4.20;;;;;;;27.49;40.61;100060.00;20992878;28;20392;-57
2023/06/14 12:14:29;;;;;;;;;;;;;;;27.56;40.69;100075.16;20992546;28;20086;-58
2023/06/14 12:24:32;;;;;;;4.53;4.13;;;;;;;27.61;40.71;100063.69;20991849;28;19954;-58
2023/06/14 12:34:33;;;;;;;4.25;3.85;;;;;;;27.54;40.89;100057.81;20991593;28;20040;-59
2023/06/14 12:44:42;;;;;;;4.68;4.10;;;;;;;27.56;40.84;100063.09;20991876;28;20428;-57
2023/06/14 12:54:43;;;;;;;4.72;4.00;;;;;;;27.55;40.60;100047.41;20991221;28;20037;-56
2023/06/14 13:04:45;;;;;;;3.53;3.22;;;;;;;27.56;40.85;100029.38;20991047;28;20036;-58
2023/06/14 13:14:46;;;;;;;4.32;3.92;;;;;;;27.56;40.77;100018.94;20990010;28;20325;-57
2023/06/14 13:24:48;;;;;;;3.88;3.47;;;;;;;27.58;40.91;100010.16;20991102;28;20036;-56
2023/06/14 13:34:50;;;;;;;3.97;3.65;;;;;;;27.58;40.93;100005.38;20994963;28;20070;-57
2023/06/14 13:44:52;;;;;;;4.35;3.95;;;;;;;27.51;40.71;99987.44;21004025;28;20035;-58
2023/06/14 13:54:54;;;;;;;4.70;4.30;;;;;;;27.59;40.65;100000.56;21003201;28;20057;-57
2023/06/14 14:04:57;;;;;;;4.18;3.78;;;;;;;27.58;40.72;99993.28;21003274;28;20056;-58
2023/06/14 14:14:58;;;;;;;4.80;4.03;;;;;;;27.58;40.73;99994.13;21002334;28;20047;-58
2023/06/14 14:24:59;;;;;;;6.07;4.60;;;;;;;27.59;40.67;99983.72;21001865;28;20484;-59
2023/06/14 14:35:01;;;;;;;4.75;4.25;;;;;;;27.58;40.92;99990.47;21001145;28;20062;-59
2023/06/14 14:45:03;;;;;;;4.70;4.25;;;;;;;27.59;40.70;99995.78;20998865;28;20047;-59
2023/06/14 14:55:05;;;;;;;4.40;4.00;;;;;;;27.61;40.68;100004.66;20997521;28;20496;-58
2023/06/14 15:05:06;;;;;;;4.65;4.25;;;;;;;27.58;40.64;99990.47;20997613;28;20074;-58
2023/06/14 15:15:09;;;;;;;4.82;4.38;;;;;;;27.57;40.70;100006.53;20996118;28;20037;-58
2023/06/14 15:25:10;;;;;;;4.95;4.45;;;;;;;27.53;41.06;99993.53;20995803;28;20067;-57
2023/06/14 15:35:12;;;;;;;5.03;4.53;;;;;;;27.59;40.79;99994.97;20995920;28;20434;-58
2023/06/14 15:45:13;;;;;;;5.30;4.75;;;;;;;27.57;40.83;100000.91;20994771;28;20554;-57
2023/06/14 15:55:15;;;;;;;5.00;4.50;;;;;;;27.55;40.60;99977.97;20993149;28;20036;-56
2023/06/14 16:05:16;;;;;;;5.30;4.80;;;;;;;27.56;40.66;99967.53;20993405;28;20036;-58
2023/06/14 16:15:20;;;;;;;5.38;4.88;;;;;;;27.55;40.83;99961.09;20992562;28;20438;-58
2023/06/14 16:25:22;;;;;;;5.35;4.85;;;;;;;27.55;40.89;99940.63;20992506;28;20033;-58
2023/06/14 16:35:23;;;;;;;5.15;4.65;;;;;;;27.55;40.77;99954.66;20992180;28;20395;-58
2023/06/14 16:45:25;;;;;;;4.65;4.25;;;;;;;27.52;40.76;99932.88;20991864;28;20041;-57
2023/06/14 16:55:26;;;;;;;6.18;4.93;;;;;;;27.53;40.81;99934.50;20989448;28;20503;-58
2023/06/14 17:05:28;;;;;;;6.28;5.05;;;;;;;27.53;40.99;99962.63;20989546;28;20117;-58
2023/06/14 17:15:29;;;;;;;6.53;4.97;;;;;;;27.52;40.89;99966.59;21004961;28;20082;-58
2023/06/14 17:25:31;;;;;;;5.60;5.07;;;;;;;27.49;41.06;99953.25;21005067;28;20067;-58
2023/06/14 17:35:32;;;;;;;5.53;5.03;;;;;;;27.48;40.95;99960.84;21004786;28;20569;-58
2023/06/14 17:45:33;;;;;;;5.90;5.28;;;;;;;27.49;40.87;99950.44;21005213;28;20040;-59
2023/06/14 17:55:35;;;;;;;6.60;5.47;;;;;;;27.49;41.15;99894.22;21003970;28;20442;-58
2023/06/14 18:05:36;;;;;;;6.60;5.03;;;;;;;27.51;41.15;99887.09;21003111;28;20045;-57
2023/06/14 18:15:38;;;;;;;5.65;5.15;;;;;;;27.51;41.59;99869.44;21003027;28;20086;-58
2023/06/14 18:25:39;;;;;;;6.63;5.57;;;;;;;27.51;41.56;99858.19;21001916;28;20387;-58
2023/06/14 18:35:41;;;;;;;43.40;8.07;;;;;;;27.53;41.81;99850.22;21001234;28;20044;-58
2023/06/14 18:45:43;;;;;;;12.40;6.10;;;;;;;27.52;41.73;99826.91;21007033;28;20105;-56
2023/06/14 18:55:46;;;;;;;13.63;6.28;;;;;;;27.53;41.92;99833.34;20998972;28;20052;-57
2023/06/14 19:05:47;;;;;;;23.25;6.50;;;;;;;27.55;42.48;99845.06;21006410;28;20045;-57
2023/06/14 19:15:52;;;;;;;42.92;8.10;;;;;;;27.57;43.50;99820.25;20997818;28;20082;-58
2023/06/14 19:25:54;;;;;;;47.20;8.40;;;;;;;27.57;43.35;99843.53;20997650;28;20043;-55
2023/06/14 19:35:55;;;;;;;58.58;9.70;;;;;;;27.57;43.39;99839.91;21006173;28;20075;-57
2023/06/14 19:46:03;;;;;;;69.82;10.18;;;;;;;27.58;43.53;99869.66;20995559;28;20052;-56
2023/06/14 19:56:06;;;;;;;169.15;22.35;;;;;;;27.55;43.46;99831.03;21045441;28;20047;-57
2023/06/14 20:06:10;;;;;;;436.83;54.55;;;;;;;27.57;43.65;99821.06;21037169;28;20498;-54
2023/06/14 20:16:13;;;;;;;546.35;85.13;;;;;;;27.58;43.53;99813.44;21029960;28;20056;-55
2023/06/14 20:26:15;;;;;;;517.63;89.43;;;;;;;27.57;43.51;99817.44;21005089;28;20074;-55
2023/06/14 20:36:18;;;;;;;464.50;82.75;;;;;;;27.58;43.81;99811.47;20988803;28;20052;-58
2023/06/14 20:46:28;;;;;;;378.58;62.97;;;;;;;27.58;43.50;99794.63;21046183;28;20052;-57
2023/06/14 20:56:29;;;;;;;311.75;53.97;;;;;;;27.57;43.49;99787.34;21005174;28;20499;-57
2023/06/14 21:06:32;;;;;;;289.60;48.90;;;;;;;27.56;43.54;99796.94;21005923;28;20048;-57
2023/06/14 21:16:33;;;;;;;261.83;44.75;;;;;;;27.57;43.21;99781.72;21027255;28;20048;-56
2023/06/14 21:26:35;;;;;;;168.90;34.10;;;;;;;27.49;43.36;99764.97;21003430;28;20041;-54
2023/06/14 21:36:39;;;;;;;131.50;27.30;;;;;;;27.58;42.58;99782.53;21031687;28;20044;-58
2023/06/14 21:46:40;;;;;;;101.13;22.50;;;;;;;27.60;42.58;99785.81;21088285;28;20086;-57
2023/06/14 21:56:42;;;;;;;83.05;19.88;;;;;;;27.59;42.29;99793.44;21086339;28;20548;-56
2023/06/14 22:06:45;;;;;;;62.95;17.20;;;;;;;27.57;42.10;99817.44;21087290;28;20044;-56
2023/06/14 22:16:47;;;;;;;45.20;16.00;;;;;;;27.56;42.04;99833.47;21085607;28;20101;-55
2023/06/14 22:26:56;;;;;;;33.45;13.13;;;;;;;27.58;41.96;99856.44;21084145;28;20040;-56
2023/06/14 22:37:03;;;;;;;30.02;12.05;;;;;;;27.58;41.92;99839.56;21023015;28;20052;-58
2023/06/14 22:47:10;;;;;;;;;;;;;;;27.58;41.50;99864.03;20998730;28;20083;-57
2023/06/14 22:57:16;;;;;;;19.95;8.00;;;;;;;27.57;41.69;99882.06;21004805;28;19916;-57
2023/06/14 23:07:21;;;;;;;24.80;9.07;;;;;;;27.61;41.51;99902.66;21014147;28;20048;-57
2023/06/14 23:17:23;;;;;;;23.30;6.57;;;;;;;27.59;41.66;99902.22;20993858;28;20048;-56
2023/06/14 23:27:24;;;;;;;30.17;8.02;;;;;;;27.57;41.71;99905.34;21004239;28;20035;-58
2023/06/14 23:37:26;;;;;;;54.25;8.65;;;;;;;27.57;41.62;99907.34;21043911;28;20074;-57
2023/06/14 23:47:30;;;;;;;78.13;11.55;;;;;;;27.53;41.73;99928.91;20992116;28;20044;-56
2023/06/14 23:57:31;;;;;;;65.50;11.25;;;;;;;27.56;41.62;99951.50;20991213;28;20074;-57
